createdAt,value
2022-12-25T00:02:06.924Z,12.42
2022-12-25T00:04:35.144Z,12.51
2022-12-25T00:07:03.170Z,12.62
2022-12-25T00:09:31.343Z,12.64
2022-12-25T00:11:59.449Z,12.67
2022-12-25T00:14:27.537Z,12.65
2022-12-25T00:16:55.592Z,12.67
2022-12-25T00:19:24.923Z,12.70
2022-12-25T00:21:52.959Z,12.73
2022-12-25T00:24:20.982Z,12.74
2022-12-25T00:26:49.177Z,12.75
2022-12-25T00:29:17.260Z,12.74
2022-12-25T00:31:45.536Z,12.73
2022-12-25T00:34:13.553Z,12.70
2022-12-25T00:36:43.039Z,12.75
2022-12-25T00:39:11.377Z,12.74
2022-12-25T00:41:57.226Z,12.77
2022-12-25T00:44:25.329Z,12.81
2022-12-25T00:46:53.540Z,12.80
2022-12-25T00:49:23.827Z,12.78
2022-12-25T00:51:53.760Z,12.73
2022-12-25T00:54:22.726Z,12.72
2022-12-25T00:56:50.717Z,12.69
2022-12-25T00:59:18.833Z,12.63
2022-12-25T01:01:47.122Z,12.50
2022-12-25T01:04:15.298Z,12.45
2022-12-25T01:06:43.361Z,12.37
2022-12-25T01:09:30.151Z,12.31
2022-12-25T01:11:58.134Z,12.17
2022-12-25T01:14:26.160Z,12.07
2022-12-25T01:16:54.246Z,12.01
2022-12-25T01:19:22.374Z,11.96
2022-12-25T01:21:50.547Z,11.92
2022-12-25T01:24:20.026Z,11.91
2022-12-25T01:26:48.255Z,11.91
2022-12-25T01:29:16.358Z,11.90
2022-12-25T01:31:44.773Z,11.87
2022-12-25T01:34:12.953Z,11.81
2022-12-25T01:36:41.011Z,11.71
2022-12-25T01:39:09.123Z,11.63
2022-12-25T01:41:38.616Z,11.61
2022-12-25T01:44:09.473Z,11.65
2022-12-25T01:46:37.924Z,11.66
2022-12-25T01:49:09.436Z,11.67
2022-12-25T01:51:41.193Z,11.69
2022-12-25T01:54:14.072Z,11.66
2022-12-25T01:56:46.548Z,11.65
2022-12-25T01:59:18.678Z,11.60
2022-12-25T02:01:47.584Z,11.54
2022-12-25T02:04:21.332Z,11.52
2022-12-25T02:06:52.484Z,11.45
2022-12-25T02:09:20.467Z,11.40
2022-12-25T02:11:59.198Z,11.45
2022-12-25T02:14:31.167Z,11.47
2022-12-25T02:17:08.287Z,11.53
2022-12-25T02:20:04.092Z,11.56
2022-12-25T02:22:43.361Z,11.57
2022-12-25T02:25:31.696Z,11.51
2022-12-25T02:28:14.304Z,11.36
2022-12-25T02:30:45.687Z,11.37
2022-12-25T02:33:35.177Z,11.32
2022-12-25T02:36:08.587Z,11.31
2022-12-25T02:39:01.009Z,11.23
2022-12-25T02:41:31.727Z,11.22
2022-12-25T02:44:22.104Z,11.25
2022-12-25T02:47:08.528Z,11.30
2022-12-25T02:49:55.183Z,11.35
2022-12-25T02:52:43.072Z,11.35
2022-12-25T02:55:32.077Z,11.34
2022-12-25T02:58:34.529Z,11.29
2022-12-25T03:01:25.139Z,11.25
2022-12-25T03:04:15.455Z,11.19
2022-12-25T03:06:58.247Z,11.19
2022-12-25T03:09:45.584Z,11.16
2022-12-25T03:12:23.852Z,11.16
2022-12-25T03:15:09.679Z,11.20
2022-12-25T03:17:39.233Z,11.12
2022-12-25T03:20:27.228Z,11.11
2022-12-25T03:23:13.667Z,11.15
2022-12-25T03:25:59.645Z,11.24
2022-12-25T03:28:27.901Z,11.30
2022-12-25T03:31:13.757Z,11.34
2022-12-25T03:34:23.655Z,11.34
2022-12-25T03:37:10.027Z,11.25
2022-12-25T03:40:04.213Z,11.24
2022-12-25T03:42:56.681Z,11.20
2022-12-25T03:45:49.143Z,11.22
2022-12-25T03:48:36.317Z,11.25
2022-12-25T03:51:28.838Z,11.36
2022-12-25T03:54:20.421Z,11.43
2022-12-25T03:57:06.907Z,11.47
2022-12-25T03:59:52.243Z,11.54
2022-12-25T04:02:37.850Z,11.55
2022-12-25T04:05:24.080Z,11.44
2022-12-25T04:08:11.134Z,11.34
2022-12-25T04:10:56.486Z,11.22
2022-12-25T04:13:41.645Z,11.19
2022-12-25T04:16:27.199Z,11.14
2022-12-25T04:19:12.904Z,11.11
2022-12-25T04:21:58.577Z,11.04
2022-12-25T04:24:45.311Z,11.04
2022-12-25T04:27:30.845Z,10.97
2022-12-25T04:30:16.444Z,10.90
2022-12-25T04:33:13.689Z,10.94
2022-12-25T04:35:59.229Z,10.96
2022-12-25T04:38:27.311Z,10.98
2022-12-25T04:40:56.856Z,11.03
2022-12-25T04:43:25.505Z,11.09
2022-12-25T04:45:54.849Z,11.11
2022-12-25T04:48:23.402Z,11.06
2022-12-25T04:50:51.545Z,11.01
2022-12-25T04:53:20.429Z,11.01
2022-12-25T04:55:48.475Z,10.94
2022-12-25T04:58:17.819Z,10.87
2022-12-25T05:00:45.871Z,10.88
2022-12-25T05:03:14.125Z,10.85
2022-12-25T05:05:42.271Z,10.95
2022-12-25T05:08:10.257Z,10.91
2022-12-25T05:10:41.060Z,10.88
2022-12-25T05:13:09.143Z,10.82
2022-12-25T05:15:40.729Z,10.84
2022-12-25T05:18:08.876Z,10.83
2022-12-25T05:20:40.297Z,10.83
2022-12-25T05:23:10.258Z,10.70
2022-12-25T05:25:40.885Z,10.60
2022-12-25T05:28:09.267Z,10.55
2022-12-25T05:30:38.736Z,10.53
2022-12-25T05:33:06.843Z,10.48
2022-12-25T05:35:37.083Z,10.39
2022-12-25T05:38:05.257Z,10.29
2022-12-25T05:40:33.499Z,10.17
2022-12-25T05:43:01.677Z,10.05
2022-12-25T05:45:29.798Z,9.93
2022-12-25T05:47:59.296Z,9.85
2022-12-25T05:50:27.381Z,9.80
2022-12-25T05:52:55.484Z,9.75
2022-12-25T05:55:23.522Z,9.70
2022-12-25T05:57:51.633Z,9.66
2022-12-25T06:00:20.960Z,9.61
2022-12-25T06:02:49.159Z,9.56
2022-12-25T06:05:18.713Z,9.49
2022-12-25T06:07:46.964Z,9.50
2022-12-25T06:10:15.148Z,9.53
2022-12-25T06:12:43.131Z,9.53
2022-12-25T06:15:11.752Z,9.49
2022-12-25T06:17:39.815Z,9.40
2022-12-25T06:20:09.217Z,9.36
2022-12-25T06:22:38.599Z,9.26
2022-12-25T06:25:08.570Z,9.16
2022-12-25T06:27:36.708Z,9.12
2022-12-25T06:30:05.518Z,9.14
2022-12-25T06:32:33.550Z,9.17
2022-12-25T06:35:01.501Z,9.13
2022-12-25T06:37:29.587Z,9.02
2022-12-25T06:39:59.004Z,8.92
2022-12-25T06:42:27.187Z,8.90
2022-12-25T06:44:55.237Z,8.91
2022-12-25T06:47:23.299Z,8.93
2022-12-25T06:49:51.261Z,8.93
2022-12-25T06:52:19.259Z,8.97
2022-12-25T06:54:47.906Z,8.88
2022-12-25T06:57:17.300Z,8.82
2022-12-25T06:59:49.799Z,8.79
2022-12-25T07:02:24.346Z,8.79
2022-12-25T07:04:53.687Z,8.74
2022-12-25T07:07:23.733Z,8.63
2022-12-25T07:09:51.934Z,8.58
2022-12-25T07:12:23.780Z,8.56
2022-12-25T07:14:54.651Z,8.54
2022-12-25T07:17:23.975Z,8.52
2022-12-25T07:19:52.588Z,8.58
2022-12-25T07:22:20.751Z,8.55
2022-12-25T07:24:48.863Z,8.48
2022-12-25T07:27:16.949Z,8.37
2022-12-25T07:29:46.431Z,8.33
2022-12-25T07:32:14.552Z,8.30
2022-12-25T07:34:42.600Z,8.28
2022-12-25T07:37:10.744Z,8.26
2022-12-25T07:39:38.691Z,8.20
2022-12-25T07:42:08.148Z,8.21
2022-12-25T07:44:36.409Z,8.26
2022-12-25T07:47:06.046Z,8.30
2022-12-25T07:49:34.085Z,8.24
2022-12-25T07:52:02.230Z,8.22
2022-12-25T07:54:30.234Z,8.27
2022-12-25T07:56:58.356Z,8.32
2022-12-25T07:59:26.555Z,8.38
2022-12-25T08:01:54.765Z,8.50
2022-12-25T08:04:24.448Z,8.63
2022-12-25T08:06:52.463Z,8.69
2022-12-25T08:09:20.504Z,8.69
2022-12-25T08:11:48.751Z,8.72
2022-12-25T08:14:16.865Z,8.75
2022-12-25T08:16:46.567Z,8.83
2022-12-25T08:19:15.651Z,8.89
2022-12-25T08:21:45.027Z,8.93
2022-12-25T08:24:13.129Z,8.83
2022-12-25T08:26:41.269Z,8.72
2022-12-25T08:29:10.672Z,8.69
2022-12-25T08:31:45.760Z,8.66
2022-12-25T08:34:14.334Z,8.54
2022-12-25T08:36:42.405Z,8.53
2022-12-25T08:39:11.926Z,8.56
2022-12-25T08:41:40.434Z,8.65
2022-12-25T08:44:08.869Z,8.65
2022-12-25T08:46:37.339Z,8.65
2022-12-25T08:49:05.605Z,8.57
2022-12-25T08:51:34.394Z,8.38
2022-12-25T08:54:02.528Z,8.28
2022-12-25T08:56:32.702Z,8.22
2022-12-25T08:59:00.713Z,8.19
2022-12-25T09:01:28.857Z,8.20
2022-12-25T09:03:56.954Z,8.19
2022-12-25T09:06:24.941Z,8.21
2022-12-25T09:08:52.997Z,8.26
2022-12-25T09:11:21.889Z,8.34
2022-12-25T09:13:51.499Z,8.40
2022-12-25T09:16:22.362Z,8.59
2022-12-25T09:18:51.151Z,8.71
2022-12-25T09:21:20.354Z,8.80
2022-12-25T09:23:48.609Z,8.74
2022-12-25T09:26:18.675Z,8.69
2022-12-25T09:28:51.883Z,8.88
2022-12-25T09:31:23.820Z,8.96
2022-12-25T09:33:52.677Z,8.96
2022-12-25T09:36:23.496Z,8.93
2022-12-25T09:38:51.765Z,9.05
2022-12-25T09:41:28.906Z,9.15
2022-12-25T09:44:04.111Z,9.12
2022-12-25T09:46:41.246Z,9.19
2022-12-25T09:49:20.628Z,9.42
2022-12-25T09:51:54.469Z,9.37
2022-12-25T09:54:27.954Z,9.42
2022-12-25T09:56:55.975Z,9.52
2022-12-25T09:59:26.280Z,9.49
2022-12-25T10:02:20.667Z,9.59
2022-12-25T10:05:05.984Z,9.76
2022-12-25T10:07:42.159Z,9.74
2022-12-25T10:10:25.410Z,9.62
2022-12-25T10:13:01.084Z,9.61
2022-12-25T10:15:39.214Z,9.65
2022-12-25T10:18:33.414Z,9.68
2022-12-25T10:21:05.688Z,9.67
2022-12-25T10:23:40.709Z,9.71
2022-12-25T10:26:15.738Z,9.80
2022-12-25T10:28:46.189Z,9.88
2022-12-25T10:31:21.279Z,9.79
2022-12-25T10:33:52.855Z,9.77
2022-12-25T10:36:24.415Z,9.77
2022-12-25T10:38:52.911Z,9.74
2022-12-25T10:41:34.379Z,9.95
2022-12-25T10:44:12.938Z,10.03
2022-12-25T10:46:42.510Z,10.12
2022-12-25T10:49:17.651Z,10.37
2022-12-25T10:51:45.882Z,10.30
2022-12-25T10:54:24.895Z,10.43
2022-12-25T10:56:58.037Z,10.62
2022-12-25T10:59:27.851Z,10.72
2022-12-25T11:01:57.410Z,10.83
2022-12-25T11:04:29.568Z,11.01
2022-12-25T11:07:00.276Z,11.04
2022-12-25T11:09:28.962Z,11.11
2022-12-25T11:11:57.466Z,11.19
2022-12-25T11:14:27.729Z,11.11
2022-12-25T11:16:55.977Z,11.22
2022-12-25T11:19:31.208Z,11.36
2022-12-25T11:22:01.277Z,11.38
2022-12-25T11:24:30.937Z,11.54
2022-12-25T11:27:00.894Z,11.55
2022-12-25T11:29:37.889Z,11.58
2022-12-25T11:32:12.809Z,11.69
2022-12-25T11:34:46.680Z,11.88
2022-12-25T11:37:19.100Z,12.02
2022-12-25T11:39:47.412Z,12.20
2022-12-25T11:42:21.012Z,12.35
2022-12-25T11:44:54.403Z,12.45
2022-12-25T11:47:27.360Z,12.58
2022-12-25T11:50:03.088Z,12.64
2022-12-25T11:52:37.995Z,12.84
2022-12-25T11:55:16.358Z,12.89
2022-12-25T11:57:47.944Z,13.10
2022-12-25T12:00:17.716Z,13.11
2022-12-25T12:02:50.106Z,13.24
2022-12-25T12:05:25.944Z,13.32
2022-12-25T12:08:00.118Z,13.37
2022-12-25T12:10:44.026Z,13.33
2022-12-25T12:13:26.536Z,13.29
2022-12-25T12:15:55.065Z,13.28
2022-12-25T12:18:25.089Z,13.22
2022-12-25T12:21:02.857Z,13.18
2022-12-25T12:23:33.061Z,13.23
2022-12-25T12:26:01.596Z,13.22
2022-12-25T12:28:37.654Z,13.21
2022-12-25T12:31:08.518Z,13.17
2022-12-25T12:33:39.064Z,13.19
2022-12-25T12:36:14.155Z,13.16
2022-12-25T12:38:44.717Z,13.13
2022-12-25T12:41:15.515Z,13.18
2022-12-25T12:43:46.840Z,13.12
2022-12-25T12:46:23.010Z,13.13
2022-12-25T12:49:10.291Z,13.03
2022-12-25T12:51:40.091Z,13.11
2022-12-25T12:54:28.108Z,13.24
2022-12-25T12:56:58.252Z,13.27
2022-12-25T12:59:27.286Z,13.29
2022-12-25T13:02:16.953Z,13.29
2022-12-25T13:04:56.018Z,13.30
2022-12-25T13:07:44.207Z,13.33
2022-12-25T13:10:24.449Z,13.27
2022-12-25T13:12:57.936Z,13.22
2022-12-25T13:15:28.694Z,13.31
2022-12-25T13:18:02.319Z,13.27
2022-12-25T13:20:40.047Z,13.47
2022-12-25T13:23:24.653Z,13.48
2022-12-25T13:25:56.846Z,13.55
2022-12-25T13:28:29.824Z,13.55
2022-12-25T13:31:06.949Z,13.58
2022-12-25T13:33:35.849Z,13.59
2022-12-25T13:36:04.349Z,13.49
2022-12-25T13:38:34.208Z,13.65
2022-12-25T13:41:19.656Z,13.70
2022-12-25T13:43:50.028Z,13.75
2022-12-25T13:46:26.396Z,13.75
2022-12-25T13:48:59.790Z,13.75
2022-12-25T13:51:29.911Z,13.76
2022-12-25T13:54:06.644Z,13.72
2022-12-25T13:56:36.199Z,13.77
2022-12-25T13:59:05.610Z,13.74
2022-12-25T14:01:33.807Z,13.78
2022-12-25T14:04:02.146Z,13.78
2022-12-25T14:06:33.069Z,13.79
2022-12-25T14:09:01.309Z,13.80
2022-12-25T14:11:32.376Z,13.78
2022-12-25T14:14:03.806Z,13.79
2022-12-25T14:16:32.303Z,13.64
2022-12-25T14:19:03.510Z,13.70
2022-12-25T14:21:34.647Z,13.65
2022-12-25T14:24:02.830Z,13.67
2022-12-25T14:26:34.717Z,13.65
2022-12-25T14:29:16.889Z,13.59
2022-12-25T14:31:46.942Z,13.52
2022-12-25T14:34:18.693Z,13.51
2022-12-25T14:36:50.845Z,13.49
2022-12-25T14:39:29.570Z,13.47
2022-12-25T14:41:59.301Z,13.51
2022-12-25T14:44:33.362Z,13.56
2022-12-25T14:47:06.860Z,13.58
2022-12-25T14:49:35.167Z,13.51
2022-12-25T14:52:11.171Z,13.43
2022-12-25T14:54:39.461Z,13.34
2022-12-25T14:57:16.165Z,13.16
2022-12-25T14:59:44.303Z,13.19
2022-12-25T15:02:19.999Z,13.14
2022-12-25T15:04:48.263Z,13.13
2022-12-25T15:07:31.148Z,13.03
2022-12-25T15:10:36.410Z,13.02
2022-12-25T15:12:48.778Z,12.98
2022-12-25T15:15:17.030Z,12.92
2022-12-25T15:17:45.132Z,12.87
2022-12-25T15:20:14.602Z,12.82
2022-12-25T15:23:02.823Z,12.75
2022-12-25T15:25:31.816Z,12.70
2022-12-25T15:28:01.561Z,12.66
2022-12-25T15:30:30.554Z,12.62
2022-12-25T15:32:58.585Z,12.55
2022-12-25T15:35:26.684Z,12.53
2022-12-25T15:37:54.708Z,12.50
2022-12-25T15:40:22.875Z,12.51
2022-12-25T15:42:51.276Z,12.44
2022-12-25T15:45:24.644Z,12.34
2022-12-25T15:47:53.101Z,12.28
2022-12-25T15:50:23.150Z,12.27
2022-12-25T15:52:51.647Z,12.25
2022-12-25T15:55:19.851Z,12.26
2022-12-25T15:57:49.458Z,12.10
2022-12-25T16:00:22.666Z,12.22
2022-12-25T16:02:52.289Z,12.12
2022-12-25T16:05:20.883Z,12.01
2022-12-25T16:07:49.150Z,12.06
2022-12-25T16:10:19.493Z,12.07
2022-12-25T16:12:48.024Z,12.14
2022-12-25T16:15:16.976Z,12.13
2022-12-25T16:17:45.223Z,12.04
2022-12-25T16:20:15.402Z,11.97
2022-12-25T16:22:47.217Z,11.87
2022-12-25T16:25:17.739Z,11.62
2022-12-25T16:27:46.262Z,11.81
2022-12-25T16:30:16.530Z,11.62
2022-12-25T16:32:45.415Z,11.73
2022-12-25T16:35:14.900Z,11.68
2022-12-25T16:37:43.093Z,11.69
2022-12-25T16:40:11.946Z,11.56
2022-12-25T16:42:40.409Z,11.50
2022-12-25T16:45:09.387Z,11.59
2022-12-25T16:47:37.835Z,11.61
2022-12-25T16:50:08.521Z,11.64
2022-12-25T16:52:37.940Z,11.61
2022-12-25T16:55:06.718Z,11.56
2022-12-25T16:57:35.153Z,11.53
2022-12-25T17:00:03.467Z,11.46
2022-12-25T17:02:31.873Z,11.40
2022-12-25T17:05:00.520Z,11.40
2022-12-25T17:07:28.681Z,11.41
2022-12-25T17:09:58.252Z,11.44
2022-12-25T17:12:26.400Z,11.40
2022-12-25T17:14:54.799Z,11.37
2022-12-25T17:17:23.134Z,11.40
2022-12-25T17:19:51.317Z,11.41
2022-12-25T17:22:19.451Z,11.34
2022-12-25T17:24:47.500Z,11.25
2022-12-25T17:27:16.997Z,11.12
2022-12-25T17:29:47.237Z,11.17
2022-12-25T17:32:15.418Z,11.08
2022-12-25T17:34:43.429Z,11.05
2022-12-25T17:37:11.417Z,11.05
2022-12-25T17:39:39.715Z,11.02
2022-12-25T17:42:07.725Z,10.90
2022-12-25T17:44:37.195Z,10.90
2022-12-25T17:47:05.342Z,10.86
2022-12-25T17:49:33.362Z,10.74
2022-12-25T17:52:01.407Z,10.68
2022-12-25T17:54:29.753Z,10.56
2022-12-25T17:56:57.846Z,10.52
2022-12-25T17:59:29.470Z,10.45
2022-12-25T18:02:01.967Z,10.43
2022-12-25T18:04:30.442Z,10.58
2022-12-25T18:06:58.451Z,10.50
2022-12-25T18:09:26.447Z,10.46
2022-12-25T18:11:54.484Z,10.42
2022-12-25T18:14:22.859Z,10.41
2022-12-25T18:16:50.824Z,10.41
2022-12-25T18:19:20.473Z,10.32
2022-12-25T18:21:48.589Z,10.24
2022-12-25T18:24:16.645Z,10.22
2022-12-25T18:26:45.637Z,10.20
2022-12-25T18:29:13.756Z,10.18
2022-12-25T18:31:41.888Z,10.12
2022-12-25T18:34:09.974Z,10.06
2022-12-25T18:36:39.427Z,10.02
2022-12-25T18:39:07.798Z,10.01
2022-12-25T18:41:56.232Z,10.02
2022-12-25T18:44:24.283Z,10.03
2022-12-25T18:46:52.738Z,10.03
2022-12-25T18:49:20.986Z,10.05
2022-12-25T18:51:51.509Z,10.12
2022-12-25T18:54:19.622Z,10.15
2022-12-25T18:56:52.912Z,10.16
2022-12-25T18:59:21.813Z,10.22
2022-12-25T19:01:49.900Z,10.27
2022-12-25T19:04:18.511Z,10.23
2022-12-25T19:06:46.561Z,10.13
2022-12-25T19:09:16.148Z,10.05
2022-12-25T19:11:46.761Z,10.06
2022-12-25T19:14:15.892Z,10.04
2022-12-25T19:16:44.252Z,9.99
2022-12-25T19:19:13.126Z,9.88
2022-12-25T19:21:41.195Z,9.76
2022-12-25T19:24:09.344Z,9.77
2022-12-25T19:26:38.792Z,9.84
2022-12-25T19:29:06.876Z,9.91
2022-12-25T19:31:34.863Z,9.86
2022-12-25T19:34:02.922Z,9.89
2022-12-25T19:36:31.270Z,9.84
2022-12-25T19:38:59.619Z,9.78
2022-12-25T19:41:27.976Z,9.71
2022-12-25T19:43:57.508Z,9.69
2022-12-25T19:46:28.248Z,9.64
2022-12-25T19:48:56.958Z,9.59
2022-12-25T19:51:27.906Z,9.56
2022-12-25T19:53:56.428Z,9.55
2022-12-25T19:56:25.312Z,9.57
2022-12-25T19:58:54.879Z,9.55
2022-12-25T20:01:26.865Z,9.39
2022-12-25T20:03:55.276Z,9.37
2022-12-25T20:06:26.078Z,9.34
2022-12-25T20:08:56.261Z,9.28
2022-12-25T20:11:26.201Z,9.28
2022-12-25T20:13:55.067Z,9.32
2022-12-25T20:16:24.989Z,9.36
2022-12-25T20:18:53.944Z,9.44
2022-12-25T20:21:23.998Z,9.54
2022-12-25T20:23:53.653Z,9.54
2022-12-25T20:26:24.734Z,9.57
2022-12-25T20:28:53.383Z,9.54
2022-12-25T20:31:27.451Z,9.56
2022-12-25T20:33:58.452Z,9.54
2022-12-25T20:36:31.057Z,9.58
2022-12-25T20:39:02.691Z,9.53
2022-12-25T20:41:30.792Z,9.40
2022-12-25T20:43:59.140Z,9.37
2022-12-25T20:46:28.164Z,9.36
2022-12-25T20:48:57.629Z,9.42
2022-12-25T20:51:28.008Z,9.43
2022-12-25T20:53:56.446Z,9.38
2022-12-25T20:56:26.839Z,9.36
2022-12-25T20:58:56.121Z,9.38
2022-12-25T21:01:24.901Z,9.40
2022-12-25T21:03:54.586Z,9.38
2022-12-25T21:06:24.414Z,9.38
2022-12-25T21:08:52.836Z,9.38
2022-12-25T21:11:21.648Z,9.34
2022-12-25T21:13:50.508Z,9.29
2022-12-25T21:16:20.865Z,9.24
2022-12-25T21:18:50.258Z,9.29
2022-12-25T21:21:18.434Z,9.28
2022-12-25T21:23:48.101Z,9.28
2022-12-25T21:26:19.190Z,9.16
2022-12-25T21:28:47.622Z,9.08
2022-12-25T21:31:15.852Z,9.01
2022-12-25T21:33:52.234Z,9.02
2022-12-25T21:36:22.325Z,9.00
2022-12-25T21:38:56.267Z,9.02
2022-12-25T21:41:24.961Z,9.00
2022-12-25T21:43:53.221Z,9.02
2022-12-25T21:46:21.584Z,9.05
2022-12-25T21:48:50.230Z,9.05
2022-12-25T21:51:38.447Z,9.02
2022-12-25T21:54:08.929Z,8.97
2022-12-25T21:56:43.829Z,8.96
2022-12-25T21:59:14.535Z,8.93
2022-12-25T22:01:42.925Z,8.88
2022-12-25T22:04:11.642Z,8.73
2022-12-25T22:06:57.508Z,8.82
2022-12-25T22:09:27.555Z,8.71
2022-12-25T22:12:12.937Z,8.71
2022-12-25T22:14:56.309Z,8.83
2022-12-25T22:17:43.998Z,8.78
2022-12-25T22:20:14.435Z,8.75
2022-12-25T22:22:42.805Z,8.68
2022-12-25T22:25:13.571Z,8.74
2022-12-25T22:27:42.830Z,8.70
2022-12-25T22:30:13.335Z,8.72
2022-12-25T22:32:41.586Z,8.71
2022-12-25T22:35:11.079Z,8.57
2022-12-25T22:37:39.312Z,8.72
2022-12-25T22:40:09.179Z,8.78
2022-12-25T22:42:39.123Z,8.77
2022-12-25T22:45:07.926Z,8.81
2022-12-25T22:47:36.065Z,8.73
2022-12-25T22:50:04.379Z,8.69
2022-12-25T22:52:32.385Z,8.67
2022-12-25T22:55:00.601Z,8.69
2022-12-25T22:57:29.239Z,8.69
2022-12-25T22:59:58.912Z,8.70
2022-12-25T23:02:27.251Z,8.56
2022-12-25T23:04:55.499Z,8.38
2022-12-25T23:07:23.702Z,8.10
2022-12-25T23:09:51.865Z,7.79
2022-12-25T23:12:37.162Z,7.55
2022-12-25T23:15:07.999Z,7.41
2022-12-25T23:17:53.553Z,7.33
2022-12-25T23:20:41.503Z,7.30
2022-12-25T23:23:31.769Z,7.31
2022-12-25T23:26:16.447Z,7.38
2022-12-25T23:29:13.739Z,7.17
2022-12-25T23:31:44.272Z,6.99
2022-12-25T23:34:12.350Z,6.93
2022-12-25T23:36:40.394Z,6.86
2022-12-25T23:39:10.464Z,6.94
2022-12-25T23:41:39.707Z,7.03
2022-12-25T23:44:08.294Z,7.11
2022-12-25T23:46:36.496Z,7.21
2022-12-25T23:49:06.202Z,7.29
2022-12-25T23:51:36.782Z,7.38
2022-12-25T23:54:05.301Z,7.35
2022-12-25T23:56:33.761Z,7.28
2022-12-25T23:59:02.074Z,7.45
